Time;durP1;ratioP1;P1;durP2;ratioP2;P2;SDS_P1;SDS_P2;PMS_P1;PMS_P2;Temp;Humidity;BMP_temperature;BMP_pressure;BME280_temperature;BME280_humidity;BME280_pressure;Samples;Min_cycle;Max_cycle;Signal;HPM_P1;HPM_P2
2023/11/11 02:23:22;;;;;;;1.30;1.30;;;;;;;11.59;54.13;97239.91;6622814;29;20215;-88
2023/11/11 02:26:46;;;;;;;1.37;1.30;;;;;;;11.14;53.74;97160.97;6650062;29;20255;-89
2023/11/11 02:34:06;;;;;;;1.47;1.47;;;;;;;11.49;51.40;97129.06;6645956;29;20242;-91
2023/11/11 02:37:28;;;;;;;1.23;1.23;;;;;;;11.05;52.17;97124.72;6650576;29;20831;-91
2023/11/11 02:40:52;;;;;;;1.30;1.30;;;;;;;11.11;53.79;97199.25;6650621;29;20231;-91
2023/11/11 02:44:15;;;;;;;1.30;1.30;;;;;;;10.51;54.48;97131.72;6650166;29;20222;-91
2023/11/11 02:47:39;;;;;;;1.40;1.30;;;;;;;10.85;54.98;97222.28;6681879;29;20220;-90
2023/11/11 02:51:22;;;;;;;2.33;1.43;;;;;;;11.36;55.43;97283.25;6705678;29;20240;-91
2023/11/11 02:54:47;;;;;;;1.30;1.30;;;;;;;10.44;55.69;97116.78;6684985;29;20291;-91
2023/11/11 02:58:10;;;;;;;1.30;1.30;;;;;;;10.49;57.09;97190.44;6705944;29;20276;-91
2023/11/11 03:01:36;;;;;;;1.40;1.40;;;;;;;10.87;57.74;97249.81;6709220;29;20267;-91
2023/11/11 03:04:58;;;;;;;1.57;1.47;;;;;;;10.47;58.92;97194.44;6720459;29;20231;-90
2023/11/11 03:08:20;;;;;;;1.50;1.40;;;;;;;11.17;59.01;97296.16;6721017;29;20600;-90
2023/11/11 03:11:42;;;;;;;2.03;1.60;;;;;;;11.34;58.29;97216.03;6721892;29;20296;-90
2023/11/11 03:15:04;;;;;;;1.50;1.40;;;;;;;11.17;57.59;97168.59;6714282;29;20693;-91
2023/11/11 03:18:30;;;;;;;2.57;1.33;;;;;;;11.31;58.90;97257.00;6713130;29;20244;-91
2023/11/11 03:21:52;;;;;;;1.30;1.30;;;;;;;10.98;59.69;97237.34;6721839;29;20219;-91
2023/11/11 03:25:14;;;;;;;1.37;1.37;;;;;;;11.22;59.91;97228.00;6716428;29;20217;-91
2023/11/11 03:28:35;;;;;;;1.60;1.50;;;;;;;10.98;57.97;97234.66;6717443;29;20235;-91
2023/11/11 03:31:57;;;;;;;1.70;1.60;;;;;;;11.35;60.03;97295.94;6721518;29;20213;-91
2023/11/11 03:35:21;;;;;;;1.40;1.40;;;;;;;11.16;59.03;97240.59;6716342;29;20344;-90
2023/11/11 03:38:43;;;;;;;2.23;1.70;;;;;;;11.17;60.45;97282.66;6718646;29;20491;-91
2023/11/11 03:42:05;;;;;;;1.83;1.73;;;;;;;11.12;60.45;97293.41;6722978;29;20211;-91
2023/11/11 03:45:30;;;;;;;1.60;1.60;;;;;;;11.20;59.29;97262.47;6718746;29;20205;-91
2023/11/11 03:48:51;;;;;;;1.60;1.60;;;;;;;10.95;59.75;97273.69;6720639;29;20244;-92
2023/11/11 03:52:20;;;;;;;1.90;1.80;;;;;;;10.57;59.93;97243.09;6722204;29;20242;-92
2023/11/11 03:55:54;;;;;;;2.80;2.00;;;;;;;11.21;59.68;97294.63;6718033;29;20216;-92
2023/11/11 03:59:28;;;;;;;1.90;1.80;;;;;;;11.05;58.86;97295.41;6724349;29;20242;-92
2023/11/11 04:02:50;;;;;;;1.93;1.80;;;;;;;11.16;58.39;97323.41;6717531;29;20212;-91
2023/11/11 04:06:13;;;;;;;2.10;2.00;;;;;;;11.10;58.51;97313.59;6721484;29;20213;-91
2023/11/11 04:09:41;;;;;;;1.80;1.70;;;;;;;11.16;58.45;97334.97;6715712;29;20232;-91
2023/11/11 04:13:15;;;;;;;1.80;1.70;;;;;;;10.51;57.84;97249.47;6732361;29;20264;-92
2023/11/11 04:16:37;;;;;;;1.57;1.57;;;;;;;10.72;57.98;97302.66;6733779;29;20212;-91
2023/11/11 04:20:11;;;;;;;1.87;1.77;;;;;;;11.28;56.79;97367.31;6718166;29;20239;-92
2023/11/11 04:23:40;;;;;;;1.70;1.60;;;;;;;10.95;56.67;97299.84;6713555;29;20219;-91
2023/11/11 04:27:16;;;;;;;1.73;1.60;;;;;;;10.92;56.78;97316.50;6710236;29;20345;-90
2023/11/11 04:30:44;;;;;;;1.57;1.50;;;;;;;11.18;55.95;97348.25;6707991;29;20259;-91
2023/11/11 04:34:43;;;;;;;2.13;1.90;;;;;;;10.93;56.78;97334.31;6716822;29;20231;-91
2023/11/11 04:41:54;;;;;;;1.70;1.60;;;;;;;11.44;56.20;97377.25;6690591;29;20221;-91
2023/11/11 04:45:44;;;;;;;1.70;1.60;;;;;;;11.34;57.24;97396.81;6697879;29;20247;-91
2023/11/11 04:49:09;;;;;;;1.90;1.80;;;;;;;11.77;57.13;97467.22;6660217;29;20232;-91
2023/11/11 04:52:31;;;;;;;1.90;1.80;;;;;;;11.00;57.84;97391.59;6705942;29;20236;-91
2023/11/11 04:55:53;;;;;;;1.83;1.73;;;;;;;11.39;57.14;97409.59;6705965;29;20272;-91
2023/11/11 05:03:10;;;;;;;2.10;1.90;;;;;;;11.26;58.01;97464.66;6692994;29;20209;-90
2023/11/11 05:06:31;;;;;;;1.90;1.80;;;;;;;11.13;57.30;97418.28;6705856;29;20673;-90
2023/11/11 07:36:42;;;;;;;2.40;2.20;;;;;;;11.91;55.13;97753.97;6741641;29;20656;-92
2023/11/11 07:48:46;;;;;;;2.37;2.20;;;;;;;10.38;56.42;97629.59;6655060;29;20921;-89
2023/11/11 08:08:56;;;;;;;1.87;1.77;;;;;;;10.86;55.95;97736.19;6732824;29;20794;-90
2023/11/11 08:12:29;;;;;;;2.20;2.07;;;;;;;11.52;54.78;97773.63;6713255;29;20216;-90
2023/11/11 08:20:11;;;;;;;2.10;2.00;;;;;;;11.47;55.00;97763.56;6705538;29;20213;-91
2023/11/11 08:23:33;;;;;;;2.20;2.10;;;;;;;11.51;54.15;97769.28;6711199;29;20716;-91
2023/11/11 08:26:56;;;;;;;2.57;2.37;;;;;;;11.85;53.73;97796.28;6721817;29;20216;-91
2023/11/11 08:30:18;;;;;;;2.10;2.00;;;;;;;11.58;53.25;97729.50;6729125;29;20236;-90
2023/11/11 08:33:40;;;;;;;2.07;1.97;;;;;;;12.17;53.31;97816.38;6707366;29;20233;-90
2023/11/11 08:37:04;;;;;;;4.57;2.30;;;;;;;12.16;52.82;97833.66;6707812;29;20280;-88
2023/11/11 08:40:25;;;;;;;2.80;2.13;;;;;;;11.98;52.43;97841.94;6709309;29;20229;-88
2023/11/11 08:43:50;;;;;;;2.10;2.00;;;;;;;11.42;52.43;97714.03;6706370;29;20248;-90
2023/11/11 08:47:15;;;;;;;2.40;2.07;;;;;;;11.57;52.75;97798.03;6706106;29;20236;-90
2023/11/11 08:50:37;;;;;;;2.27;2.00;;;;;;;12.27;52.53;97851.75;6706247;29;20779;-88
2023/11/11 08:54:03;;;;;;;3.93;2.47;;;;;;;11.84;53.15;97824.34;6719309;29;20232;-90
2023/11/11 08:57:27;;;;;;;4.20;2.30;;;;;;;12.11;52.72;97825.44;6731949;29;20660;-90
2023/11/11 09:00:53;;;;;;;3.00;2.43;;;;;;;12.28;52.77;97845.28;6731310;29;20711;-90
2023/11/11 09:04:16;;;;;;;2.53;2.20;;;;;;;12.42;51.81;97853.94;6731094;29;20223;-88
2023/11/11 09:07:38;;;;;;;2.20;2.10;;;;;;;12.02;51.67;97772.88;6731341;29;20212;-89
2023/11/11 09:11:06;;;;;;;2.50;2.30;;;;;;;11.55;52.38;97748.84;6730980;29;20247;-88
2023/11/11 09:14:33;;;;;;;2.47;2.37;;;;;;;11.82;51.67;97801.34;6731197;29;20224;-90
2023/11/11 09:17:57;;;;;;;3.30;3.00;;;;;;;12.32;51.74;97837.50;6730828;29;20212;-90
2023/11/11 09:21:27;;;;;;;13.80;5.83;;;;;;;12.61;52.06;97869.75;6731329;29;20209;-90
2023/11/11 09:24:48;;;;;;;8.93;4.47;;;;;;;11.19;52.15;97755.34;6730527;29;20590;-90
2023/11/11 09:28:10;;;;;;;4.00;3.53;;;;;;;12.01;51.64;97883.84;6730750;29;20243;-90
2023/11/11 09:31:31;;;;;;;3.03;2.70;;;;;;;12.30;51.20;97899.09;6730529;29;20672;-90
2023/11/11 09:34:56;;;;;;;3.60;3.30;;;;;;;11.77;50.56;97790.41;6730316;29;20571;-91
2023/11/11 09:38:17;;;;;;;3.23;2.67;;;;;;;12.71;50.06;97888.06;6730227;29;20220;-91
2023/11/11 09:41:43;;;;;;;3.17;2.83;;;;;;;12.94;49.61;97890.66;6731138;29;20299;-89
2023/11/11 09:45:05;;;;;;;2.77;2.50;;;;;;;11.62;49.48;97766.59;6730709;29;20251;-87
2023/11/11 09:48:27;;;;;;;3.33;2.70;;;;;;;12.37;49.66;97870.03;6730551;29;20263;-88
2023/11/11 09:51:50;;;;;;;3.03;2.50;;;;;;;12.91;49.23;97907.38;6727102;29;20685;-88
2023/11/11 09:55:14;;;;;;;4.53;2.90;;;;;;;12.81;49.22;97867.41;6723307;29;20236;-87
2023/11/11 09:58:35;;;;;;;4.30;2.30;;;;;;;12.74;49.10;97904.63;6730313;29;20239;-88
2023/11/11 10:01:57;;;;;;;2.70;2.50;;;;;;;12.43;48.54;97901.53;6729950;29;20360;-88
2023/11/11 10:05:25;;;;;;;3.83;2.97;;;;;;;12.52;47.69;97803.59;6731919;29;20608;-89
2023/11/11 10:09:24;;;;;;;3.73;2.70;;;;;;;12.81;46.91;97788.97;6725915;29;20279;-86
2023/11/11 10:17:13;;;;;;;2.40;2.20;;;;;;;12.93;45.30;97821.41;6625944;29;20212;-85
2023/11/11 10:20:36;;;;;;;2.80;2.50;;;;;;;13.18;44.96;97760.44;6627201;29;20239;-89
2023/11/11 10:23:58;;;;;;;2.77;2.23;;;;;;;13.47;43.63;97785.50;6630997;29;20229;-89
2023/11/11 10:27:19;;;;;;;2.00;1.90;;;;;;;14.36;42.00;97896.31;6625442;29;20341;-86
2023/11/11 10:30:41;;;;;;;3.27;1.90;;;;;;;14.48;43.12;97883.44;6625890;29;20417;-88
2023/11/11 10:34:04;;;;;;;2.80;1.90;;;;;;;14.14;43.28;97898.13;6636953;29;20278;-88
2023/11/11 10:37:25;;;;;;;2.60;2.00;;;;;;;13.72;43.54;97900.47;6649841;29;20216;-86
2023/11/11 11:02:14;;;;;;;2.43;2.00;;;;;;;12.79;46.20;97893.06;6703985;29;20185;-88
2023/11/11 11:05:44;;;;;;;8.10;5.00;;;;;;;13.63;44.16;97896.53;6703371;29;20657;-87
2023/11/11 11:47:40;;;;;;;2.53;2.30;;;;;;;13.40;41.83;97876.94;6707531;29;20216;-88
2023/11/11 11:51:07;;;;;;;2.80;2.60;;;;;;;13.85;41.63;97883.88;6727324;29;20745;-88
2023/11/11 11:54:28;;;;;;;2.23;2.00;;;;;;;13.54;40.05;97765.31;6719433;29;20241;-88
2023/11/11 11:57:53;;;;;;;4.30;2.10;;;;;;;13.99;39.92;97830.16;6714734;29;20247;-89
2023/11/11 12:01:27;;;;;;;2.10;2.00;;;;;;;14.24;40.25;97893.72;6732856;29;20224;-89
2023/11/11 12:04:48;;;;;;;2.37;2.17;;;;;;;13.64;40.75;97829.66;6732561;29;20216;-88
2023/11/11 12:08:11;;;;;;;4.80;2.50;;;;;;;14.10;39.74;97835.47;6732825;29;20212;-88
2023/11/11 12:11:34;;;;;;;2.00;1.90;;;;;;;13.91;40.74;97866.63;6732570;29;20295;-86
2023/11/11 12:14:56;;;;;;;1.83;1.73;;;;;;;13.85;40.91;97893.88;6731732;29;20236;-85
2023/11/11 12:18:19;;;;;;;2.43;2.13;;;;;;;14.09;40.93;97889.94;6712696;29;20364;-85
2023/11/11 12:21:44;;;;;;;2.40;2.10;;;;;;;14.18;40.63;97891.13;6707037;29;20280;-85
2023/11/11 12:25:07;;;;;;;2.27;2.07;;;;;;;14.00;41.11;97883.28;6706429;29;20235;-85
2023/11/11 12:28:29;;;;;;;8.67;5.43;;;;;;;14.66;41.02;97897.53;6722130;29;20645;-85
2023/11/11 12:31:51;;;;;;;3.90;2.13;;;;;;;14.74;39.91;97877.28;6729487;29;20804;-86
2023/11/11 12:35:14;;;;;;;2.20;2.00;;;;;;;14.79;39.48;97902.56;6730165;29;20727;-85
2023/11/11 12:38:36;;;;;;;3.13;2.37;;;;;;;14.38;40.46;97918.56;6739721;29;20327;-88
2023/11/11 12:41:57;;;;;;;2.80;2.17;;;;;;;13.06;44.94;97922.06;6722502;29;20253;-86
2023/11/11 13:24:52;;;;;;;4.47;2.67;;;;;;;13.90;50.63;97930.03;6671508;29;20208;-86
2023/11/11 13:28:15;;;;;;;2.63;2.43;;;;;;;13.12;51.58;97895.91;6670549;29;20227;-85
2023/11/11 13:31:38;;;;;;;2.80;2.40;;;;;;;13.13;52.03;97873.19;6727367;29;20208;-85
2023/11/11 13:35:00;;;;;;;3.13;2.60;;;;;;;13.35;50.69;97882.25;6713953;29;20250;-85
2023/11/11 13:38:25;;;;;;;28.40;12.20;;;;;;;13.90;48.81;97885.84;6714939;29;20235;-86
2023/11/11 13:41:49;;;;;;;2.57;2.37;;;;;;;14.47;46.88;97906.22;6732467;29;20288;-87
2023/11/11 13:45:11;;;;;;;4.57;4.17;;;;;;;13.89;47.77;97857.09;6730362;29;20212;-86
2023/11/11 13:48:32;;;;;;;3.40;3.13;;;;;;;14.82;47.42;97922.94;6749529;29;20239;-87
2023/11/11 13:51:54;;;;;;;2.50;2.30;;;;;;;14.23;45.00;97870.34;6730287;29;20220;-85
2023/11/11 13:55:16;;;;;;;3.43;2.40;;;;;;;14.95;46.10;97917.13;6704723;29;20269;-86
2023/11/11 13:58:38;;;;;;;3.80;3.50;;;;;;;14.58;46.06;97914.22;6716610;29;20697;-86
2023/11/11 14:02:00;;;;;;;3.70;2.90;;;;;;;14.36;46.06;97913.41;6715117;29;20676;-85
2023/11/11 14:05:21;;;;;;;2.50;2.30;;;;;;;14.48;45.26;97910.56;6719200;29;20212;-86
2023/11/11 14:08:43;;;;;;;3.20;2.30;;;;;;;14.46;45.90;97901.88;6722522;29;20761;-85
2023/11/11 14:12:05;;;;;;;2.40;2.20;;;;;;;13.51;46.84;97866.00;6712463;29;20218;-86
2023/11/11 14:15:38;;;;;;;2.90;2.60;;;;;;;13.41;46.54;97822.53;6715510;29;20258;-86
2023/11/11 14:18:59;;;;;;;6.03;2.73;;;;;;;13.77;46.57;97846.38;6714813;29;20630;-86
2023/11/11 14:22:21;;;;;;;3.00;2.80;;;;;;;14.21;46.78;97929.44;6728211;29;20690;-86
2023/11/11 14:25:44;;;;;;;3.23;2.77;;;;;;;14.06;47.29;97931.91;6727203;29;20240;-86
2023/11/11 14:29:05;;;;;;;4.40;3.30;;;;;;;13.98;47.86;97926.88;6721019;29;20588;-88
2023/11/11 14:32:28;;;;;;;3.17;2.70;;;;;;;13.82;46.60;97914.19;6725849;29;20284;-86
2023/11/11 14:35:50;;;;;;;2.63;2.43;;;;;;;14.13;44.94;97942.56;6729363;29;20335;-86
2023/11/11 14:39:12;;;;;;;2.80;2.60;;;;;;;13.63;44.49;97838.84;6724800;29;20376;-86
2023/11/11 14:42:34;;;;;;;3.53;2.97;;;;;;;14.05;43.85;97948.41;6724283;29;20235;-86
2023/11/11 14:45:57;;;;;;;5.53;3.13;;;;;;;13.60;44.78;97934.13;6726424;29;20208;-87
2023/11/11 14:49:27;;;;;;;6.07;3.80;;;;;;;13.85;43.55;97915.56;6733727;29;20690;-86
2023/11/11 14:52:51;;;;;;;6.40;3.43;;;;;;;13.85;43.08;97943.50;6755394;29;20203;-86
2023/11/11 14:56:13;;;;;;;14.53;7.27;;;;;;;13.51;43.55;97900.41;6760121;29;20227;-86
2023/11/11 15:04:24;;;;;;;3.20;2.70;;;;;;;13.77;44.02;97957.47;6760077;29;20560;-89
2023/11/11 15:07:46;;;;;;;3.50;3.20;;;;;;;13.37;44.64;97921.56;6761013;29;20248;-88
2023/11/11 15:11:14;;;;;;;2.80;2.60;;;;;;;13.12;43.45;97875.09;6760975;29;20231;-88
2023/11/11 16:40:11;;;;;;;2.67;2.47;;;;;;;12.74;43.25;98030.94;6751773;29;20223;-88
2023/11/11 16:47:16;;;;;;;3.47;2.47;;;;;;;12.35;43.78;97974.88;6712664;29;20216;-88
2023/11/11 16:50:38;;;;;;;2.60;2.40;;;;;;;12.48;45.08;98053.03;6720906;29;20232;-88
2023/11/11 16:53:59;;;;;;;5.23;2.40;;;;;;;12.44;46.01;98049.16;6732897;29;20318;-88
2023/11/11 16:57:22;;;;;;;3.13;2.70;;;;;;;11.40;46.41;97918.56;6734175;29;20327;-88
2023/11/11 17:00:47;;;;;;;2.93;2.53;;;;;;;12.09;47.14;98053.72;6714493;29;20239;-87
2023/11/11 17:04:26;;;;;;;2.83;2.40;;;;;;;10.73;48.45;97916.19;6724176;29;20213;-87
2023/11/11 17:07:49;;;;;;;2.60;2.40;;;;;;;10.56;49.48;97942.94;6725266;29;20276;-88
2023/11/11 17:11:14;;;;;;;2.53;2.33;;;;;;;11.51;48.45;98014.94;6721069;29;20229;-88
2023/11/11 17:14:37;;;;;;;3.23;2.40;;;;;;;11.48;48.46;98024.31;6722092;29;20237;-88
2023/11/11 17:18:03;;;;;;;2.03;1.93;;;;;;;11.76;48.76;98067.72;6722366;29;20224;-86
2023/11/11 17:21:25;;;;;;;2.20;2.10;;;;;;;11.19;48.62;98000.84;6727189;29;20227;-88
2023/11/11 17:24:47;;;;;;;3.83;2.30;;;;;;;11.22;49.40;98023.84;6705469;29;20208;-88
2023/11/11 17:28:10;;;;;;;2.60;2.40;;;;;;;10.79;49.48;97966.50;6714313;29;20208;-86
2023/11/11 17:31:36;;;;;;;2.27;2.07;;;;;;;11.13;49.47;98025.19;6721809;29;20213;-88
2023/11/11 17:35:20;;;;;;;3.23;2.50;;;;;;;10.04;50.67;97923.88;6725414;29;20236;-88
2023/11/11 17:39:18;;;;;;;2.60;2.40;;;;;;;10.80;51.17;98068.75;6749217;23;20243;-90
2023/11/11 17:42:49;;;;;;;2.80;2.50;;;;;;;10.64;50.75;98012.72;6730163;29;20237;-87
2023/11/11 17:50:19;;;;;;;2.37;2.20;;;;;;;11.32;49.50;98078.06;6748497;29;20603;-86
2023/11/11 17:53:57;;;;;;;2.70;2.37;;;;;;;10.10;50.20;97953.41;6743819;29;20252;-86
2023/11/11 17:57:19;;;;;;;2.50;2.30;;;;;;;10.77;48.74;97930.88;6727647;29;20214;-82
2023/11/11 18:00:40;;;;;;;2.77;2.30;;;;;;;11.14;49.21;98027.69;6742965;29;20224;-84
2023/11/11 18:04:02;;;;;;;2.60;2.40;;;;;;;11.68;48.50;98080.75;6727381;29;20851;-80
2023/11/11 18:07:25;;;;;;;4.83;4.13;;;;;;;12.00;47.74;98085.66;6728095;29;20217;-83
2023/11/11 18:10:47;;;;;;;3.07;2.80;;;;;;;11.67;48.10;98084.47;6728836;29;20650;-85
2023/11/11 18:14:08;;;;;;;2.50;2.30;;;;;;;11.81;47.97;98083.25;6736506;29;20589;-84
2023/11/11 18:21:07;;;;;;;2.77;2.30;;;;;;;11.57;48.65;98041.81;6726741;29;20232;-82
2023/11/11 18:37:30;;;;;;;5.17;2.67;;;;;;;10.63;50.42;98024.56;6659194;29;20250;-88
2023/11/11 18:40:51;;;;;;;3.63;2.40;;;;;;;10.93;50.27;98073.97;6660018;29;20238;-84
2023/11/11 18:44:18;;;;;;;4.40;2.57;;;;;;;10.78;50.26;98059.22;6659344;29;20308;-88
2023/11/11 18:47:40;;;;;;;2.70;2.50;;;;;;;10.66;50.45;98059.16;6614249;29;20682;-87
2023/11/11 18:56:04;;;;;;;3.03;2.73;;;;;;;10.76;51.14;98085.59;6624356;29;20249;-87
2023/11/11 18:59:32;;;;;;;3.20;2.90;;;;;;;9.99;51.94;97983.72;6630774;29;20241;-90
2023/11/11 19:02:57;;;;;;;3.63;2.90;;;;;;;10.20;50.59;97947.50;6633573;29;20222;-89
2023/11/11 19:06:26;;;;;;;2.60;2.37;;;;;;;10.11;50.85;97975.78;6675983;29;20224;-89
2023/11/11 19:10:24;;;;;;;2.20;2.10;;;;;;;10.46;51.48;98018.09;6682454;29;20799;-84
2023/11/11 19:13:49;;;;;;;3.47;2.43;;;;;;;10.10;50.99;97942.63;6676516;29;20208;-86
2023/11/11 19:17:14;;;;;;;4.20;2.67;;;;;;;11.03;50.29;98036.53;6661550;29;20702;-85
2023/11/11 19:24:34;;;;;;;2.83;2.30;;;;;;;11.09;49.81;98032.13;6674717;29;20225;-89
2023/11/11 19:28:41;;;;;;;2.53;2.30;;;;;;;10.53;50.40;97977.63;6680392;29;20859;-86
2023/11/11 19:32:36;;;;;;;2.53;2.33;;;;;;;10.31;50.49;97963.78;6718302;29;20231;-86
2023/11/11 19:36:02;;;;;;;3.23;2.50;;;;;;;10.89;50.19;98012.66;6733201;29;20256;-86
2023/11/11 19:40:16;;;;;;;;;;;;;;;;;;;;;
2023/11/11 19:52:06;;;;;;;2.83;2.50;;;;;;;10.49;52.17;98060.78;6722385;29;20706;-88
2023/11/11 19:55:28;;;;;;;2.90;2.60;;;;;;;10.21;52.80;98027.28;6731368;29;20239;-89
2023/11/11 20:03:17;;;;;;;3.67;2.50;;;;;;;11.14;51.19;98102.38;6740438;29;20290;-89
2023/11/11 20:06:42;;;;;;;2.73;2.53;;;;;;;10.71;51.48;98042.31;6725720;29;20577;-87
2023/11/11 20:10:08;;;;;;;2.47;2.27;;;;;;;10.12;51.88;97986.34;6718036;29;20263;-89
2023/11/11 20:13:32;;;;;;;3.67;2.87;;;;;;;11.05;50.74;98068.69;6734933;29;20223;-89
2023/11/11 20:16:54;;;;;;;3.20;2.40;;;;;;;10.71;51.88;98094.38;6727255;29;20250;-89
2023/11/11 20:20:18;;;;;;;2.67;2.47;;;;;;;10.48;52.25;98082.56;6729934;29;20261;-89
2023/11/11 20:23:41;;;;;;;3.03;2.60;;;;;;;10.27;51.91;97994.88;6719641;29;20231;-89
2023/11/11 20:27:06;;;;;;;3.17;2.30;;;;;;;9.88;52.79;97994.41;6723964;29;20225;-89
2023/11/11 20:30:33;;;;;;;2.80;2.60;;;;;;;10.57;51.80;98035.44;6715734;29;20232;-89
2023/11/11 20:33:57;;;;;;;3.13;2.30;;;;;;;10.36;52.33;98049.31;6723528;29;20212;-89
2023/11/11 20:37:26;;;;;;;2.70;2.50;;;;;;;10.25;52.85;98064.34;6735443;29;20251;-89
2023/11/11 20:40:50;;;;;;;4.07;2.70;;;;;;;9.82;52.66;97979.13;6751374;29;20749;-89
2023/11/11 20:44:31;;;;;;;3.27;2.27;;;;;;;10.06;52.15;97967.56;6725059;29;20565;-89
2023/11/11 20:48:12;;;;;;;2.80;2.37;;;;;;;10.47;52.02;98048.56;6717410;29;20220;-89
2023/11/11 20:51:45;;;;;;;3.37;3.07;;;;;;;9.77;52.88;97989.72;6718754;29;20221;-90
2023/11/11 20:55:48;;;;;;;2.97;2.67;;;;;;;10.28;52.68;98038.81;6759344;29;20211;-90
2023/11/11 21:07:17;;;;;;;;;;;;;;;;;;;;;
2023/11/11 22:06:33;;;;;;;3.47;2.40;;;;;;;11.70;51.18;98082.13;6729793;29;20237;-82
2023/11/11 22:10:00;;;;;;;2.40;2.30;;;;;;;11.50;50.00;98000.59;6722679;29;20315;-83
2023/11/11 22:13:21;;;;;;;4.20;2.20;;;;;;;11.29;50.57;97992.19;6731387;29;20577;-87
2023/11/11 22:16:49;;;;;;;1.93;1.83;;;;;;;11.82;49.61;98030.88;6744797;29;20239;-87
2023/11/11 22:20:37;;;;;;;2.27;2.10;;;;;;;11.07;50.35;97947.88;6753619;29;20233;-87
2023/11/11 22:24:22;;;;;;;3.70;2.30;;;;;;;10.96;50.75;97938.69;6730792;29;20302;-88
2023/11/11 22:28:24;;;;;;;3.47;2.40;;;;;;;11.40;50.34;97986.03;6683933;29;20216;-89
2023/11/11 23:02:01;;;;;;;2.33;2.13;;;;;;;11.99;50.35;98042.66;6439346;30;20247;-88
2023/11/11 23:09:47;;;;;;;3.20;2.50;;;;;;;11.30;49.87;97918.28;6438385;30;20236;-88
